createdAt,value
2018-06-16T00:00:43.544Z,0
2018-06-16T00:01:53.352Z,0
2018-06-16T00:03:03.168Z,0
2018-06-16T00:04:13.250Z,0
2018-06-16T00:05:23.344Z,0
2018-06-16T00:06:33.449Z,0
2018-06-16T00:07:43.257Z,0
2018-06-16T00:08:53.347Z,0
2018-06-16T00:10:03.420Z,0
2018-06-16T00:11:13.519Z,0
2018-06-16T00:12:23.346Z,0
2018-06-16T00:13:33.149Z,0
2018-06-16T00:14:43.235Z,0
2018-06-16T00:15:53.331Z,0
2018-06-16T00:17:03.420Z,0
2018-06-16T00:18:13.251Z,0
2018-06-16T00:19:23.076Z,0
2018-06-16T00:20:33.178Z,0
2018-06-16T00:21:43.308Z,0
2018-06-16T00:22:53.386Z,0
2018-06-16T00:24:03.485Z,0
2018-06-16T00:25:13.562Z,0
2018-06-16T00:26:23.663Z,0
2018-06-16T00:27:33.478Z,0
2018-06-16T00:28:43.546Z,0
2018-06-16T00:29:53.621Z,0
2018-06-16T00:31:03.438Z,0
2018-06-16T00:32:13.249Z,0
2018-06-16T00:33:23.064Z,0
2018-06-16T00:34:33.140Z,0
2018-06-16T00:35:43.213Z,0
2018-06-16T00:36:53.282Z,0
2018-06-16T00:38:03.120Z,0
2018-06-16T00:39:12.946Z,0
2018-06-16T00:40:22.748Z,0
2018-06-16T00:41:32.578Z,0
2018-06-16T00:42:42.408Z,0
2018-06-16T00:43:52.493Z,0
2018-06-16T00:45:02.577Z,0
2018-06-16T00:46:12.677Z,0
2018-06-16T00:47:22.494Z,0
2018-06-16T00:48:32.580Z,0
2018-06-16T00:49:42.659Z,0
2018-06-16T00:50:52.489Z,0
2018-06-16T00:52:02.309Z,0
2018-06-16T00:53:12.126Z,0
2018-06-16T00:54:22.204Z,0
2018-06-16T00:55:31.754Z,0
2018-06-16T00:56:41.558Z,0
2018-06-16T00:57:51.629Z,0
2018-06-16T00:59:01.455Z,0
2018-06-16T01:00:11.552Z,0
2018-06-16T01:01:21.371Z,0
2018-06-16T01:02:31.497Z,0
2018-06-16T01:03:41.302Z,0
2018-06-16T01:04:51.378Z,0
2018-06-16T01:06:01.190Z,0
2018-06-16T01:07:11.260Z,0
2018-06-16T01:08:21.357Z,0
2018-06-16T01:09:31.168Z,0
2018-06-16T01:10:41.243Z,0
2018-06-16T01:11:51.314Z,0
2018-06-16T01:13:00.862Z,0
2018-06-16T01:14:10.939Z,0
2018-06-16T01:15:21.008Z,0
2018-06-16T01:16:31.070Z,0
2018-06-16T01:17:40.883Z,0
2018-06-16T01:18:50.686Z,0
2018-06-16T01:20:00.818Z,0
2018-06-16T01:21:10.887Z,0
2018-06-16T01:22:20.960Z,0
2018-06-16T01:23:30.765Z,0
2018-06-16T01:24:40.850Z,0
2018-06-16T01:25:50.921Z,0
2018-06-16T01:27:00.997Z,0
2018-06-16T01:28:11.067Z,0
2018-06-16T01:29:21.152Z,0
2018-06-16T01:30:30.948Z,0
2018-06-16T01:31:41.005Z,0
2018-06-16T01:32:51.067Z,0
2018-06-16T01:34:00.864Z,0
2018-06-16T01:35:10.941Z,0
2018-06-16T01:36:21.014Z,0
2018-06-16T01:37:31.088Z,0
2018-06-16T01:38:41.194Z,0
2018-06-16T01:39:51.005Z,0
2018-06-16T01:41:00.815Z,0
2018-06-16T01:42:10.366Z,0
2018-06-16T01:43:20.502Z,0
2018-06-16T01:44:30.573Z,0
2018-06-16T01:45:40.652Z,0
2018-06-16T01:46:50.773Z,0
2018-06-16T01:48:00.868Z,0
2018-06-16T01:49:10.696Z,0
2018-06-16T01:50:20.773Z,0
2018-06-16T01:51:30.850Z,0
2018-06-16T01:52:40.919Z,0
2018-06-16T01:53:50.778Z,0
2018-06-16T01:55:00.843Z,0
2018-06-16T01:56:10.923Z,0
2018-06-16T01:57:21.010Z,0
2018-06-16T01:58:31.080Z,0
2018-06-16T01:59:41.162Z,0
2018-06-16T02:00:51.224Z,0
2018-06-16T02:02:01.297Z,0
2018-06-16T02:03:11.386Z,0
2018-06-16T02:04:21.455Z,0
2018-06-16T02:05:31.261Z,0
2018-06-16T02:06:41.358Z,0
2018-06-16T02:07:51.188Z,0
2018-06-16T02:09:01.262Z,0
2018-06-16T02:10:11.356Z,0
2018-06-16T02:11:21.443Z,0
2018-06-16T02:12:31.346Z,0
2018-06-16T02:13:41.442Z,4
2018-06-16T02:14:51.258Z,4
2018-06-16T02:16:01.335Z,0
2018-06-16T02:17:11.161Z,0
2018-06-16T02:18:21.228Z,4
2018-06-16T02:19:31.323Z,0
2018-06-16T02:20:41.135Z,4
2018-06-16T02:21:51.204Z,4
2018-06-16T02:23:01.022Z,4
2018-06-16T02:24:10.882Z,4
2018-06-16T02:25:20.952Z,8
2018-06-16T02:26:31.015Z,8
2018-06-16T02:27:40.827Z,8
2018-06-16T02:28:50.897Z,8
2018-06-16T02:30:00.749Z,8
2018-06-16T02:31:10.558Z,12
2018-06-16T02:32:20.377Z,12
2018-06-16T02:33:30.455Z,16
2018-06-16T02:34:40.545Z,20
2018-06-16T02:35:50.669Z,20
2018-06-16T02:37:00.753Z,24
2018-06-16T02:38:10.820Z,28
2018-06-16T02:39:20.363Z,32
2018-06-16T02:40:30.455Z,36
2018-06-16T02:41:40.539Z,40
2018-06-16T02:42:50.629Z,44
2018-06-16T02:44:00.716Z,52
2018-06-16T02:45:10.815Z,60
2018-06-16T02:46:20.642Z,64
2018-06-16T02:47:30.773Z,72
2018-06-16T02:48:40.327Z,80
2018-06-16T02:49:50.420Z,84
2018-06-16T02:51:00.533Z,92
2018-06-16T02:52:10.352Z,100
2018-06-16T02:53:20.496Z,108
2018-06-16T02:54:30.328Z,120
2018-06-16T02:55:40.413Z,132
2018-06-16T02:56:50.512Z,144
2018-06-16T02:58:00.572Z,160
2018-06-16T02:59:10.443Z,172
2018-06-16T03:00:20.251Z,188
2018-06-16T03:01:30.330Z,204
2018-06-16T03:02:40.490Z,220
2018-06-16T03:34:47.031Z,980
2018-06-16T03:35:57.097Z,1008
2018-06-16T03:37:07.169Z,1052
2018-06-16T03:38:16.978Z,1100
2018-06-16T03:39:27.065Z,1144
2018-06-16T03:40:37.140Z,1196
2018-06-16T03:41:47.008Z,1260
2018-06-16T03:42:56.809Z,1320
2018-06-16T03:44:06.621Z,1384
2018-06-16T03:45:16.694Z,1440
2018-06-16T03:46:26.771Z,1492
2018-06-16T03:47:36.833Z,1532
2018-06-16T03:48:46.903Z,1612
2018-06-16T03:49:56.705Z,1764
2018-06-16T03:51:07.042Z,1968
2018-06-16T03:52:16.858Z,2072
2018-06-16T03:53:26.660Z,2016
2018-06-16T03:54:36.472Z,2032
2018-06-16T03:55:46.270Z,2088
2018-06-16T03:56:56.324Z,2132
2018-06-16T03:58:06.157Z,2168
2018-06-16T03:59:16.235Z,2208
2018-06-16T04:00:26.287Z,2256
2018-06-16T04:01:36.362Z,2320
2018-06-16T04:02:46.422Z,2384
2018-06-16T04:03:56.493Z,2436
2018-06-16T04:05:06.552Z,2468
2018-06-16T04:06:16.629Z,2484
2018-06-16T04:07:26.461Z,2504
2018-06-16T04:08:36.539Z,2552
2018-06-16T04:09:46.122Z,2616
2018-06-16T04:10:56.213Z,2688
2018-06-16T04:12:06.031Z,2772
2018-06-16T04:13:16.100Z,2864
2018-06-16T04:14:26.166Z,2948
2018-06-16T04:15:36.258Z,3040
2018-06-16T04:16:46.070Z,3120
2018-06-16T04:17:55.883Z,4224
2018-06-16T04:19:05.950Z,7980
2018-06-16T04:20:15.764Z,9608
2018-06-16T04:21:25.821Z,9784
2018-06-16T04:22:35.891Z,10036
2018-06-16T04:23:45.955Z,9484
2018-06-16T04:24:56.028Z,9572
2018-06-16T04:26:05.843Z,9780
2018-06-16T04:27:15.965Z,9800
2018-06-16T04:28:25.765Z,9692
2018-06-16T04:29:35.317Z,9764
2018-06-16T04:30:45.409Z,10020
2018-06-16T04:31:55.732Z,9924
2018-06-16T04:33:05.953Z,10244
2018-06-16T04:34:16.019Z,10428
2018-06-16T04:35:26.420Z,10176
2018-06-16T04:36:36.245Z,10016
2018-06-16T04:37:46.064Z,10244
2018-06-16T04:38:56.148Z,10252
2018-06-16T04:40:06.255Z,10400
2018-06-16T04:41:16.331Z,10752
2018-06-16T04:42:26.422Z,10804
2018-06-16T04:43:36.496Z,10696
2018-06-16T04:44:46.320Z,10624
2018-06-16T04:45:56.325Z,10292
2018-06-16T04:47:06.124Z,10472
2018-06-16T04:48:16.190Z,10500
2018-06-16T04:49:26.298Z,8848
2018-06-16T04:50:36.387Z,8352
2018-06-16T04:51:46.216Z,9132
2018-06-16T04:52:56.290Z,10016
2018-06-16T04:54:06.366Z,8988
2018-06-16T04:55:16.451Z,6252
2018-06-16T04:56:26.059Z,5188
2018-06-16T04:57:35.891Z,5316
2018-06-16T04:58:45.972Z,5780
2018-06-16T04:59:56.060Z,6684
2018-06-16T05:01:06.120Z,6520
2018-06-16T05:02:16.213Z,7008
2018-06-16T05:03:26.282Z,8740
2018-06-16T05:04:36.111Z,10192
2018-06-16T05:05:46.201Z,8832
2018-06-16T05:06:56.019Z,7636
2018-06-16T05:08:05.835Z,7724
2018-06-16T05:09:15.909Z,6780
2018-06-16T05:10:25.995Z,7192
2018-06-16T05:11:35.809Z,5908
2018-06-16T05:12:45.617Z,5720
2018-06-16T05:13:55.494Z,6300
2018-06-16T05:15:05.060Z,8108
2018-06-16T05:16:14.873Z,7576
2018-06-16T05:17:24.177Z,7368
2018-06-16T05:18:34.254Z,8684
2018-06-16T05:19:44.325Z,10676
2018-06-16T05:20:54.140Z,10924
2018-06-16T05:22:04.127Z,10960
2018-06-16T05:23:13.940Z,11084
2018-06-16T05:24:23.500Z,10936
2018-06-16T05:25:33.571Z,10696
2018-06-16T05:26:43.705Z,10152
2018-06-16T05:27:53.775Z,9464
2018-06-16T05:29:03.852Z,9272
2018-06-16T05:30:13.658Z,8584
2018-06-16T05:31:23.736Z,7872
2018-06-16T05:32:33.792Z,7988
2018-06-16T05:33:43.319Z,9120
2018-06-16T05:34:53.402Z,8132
2018-06-16T05:36:03.495Z,6048
2018-06-16T05:37:13.588Z,6216
2018-06-16T05:38:23.519Z,7304
2018-06-16T05:39:33.373Z,8468
2018-06-16T05:40:43.178Z,9660
2018-06-16T05:41:52.991Z,10168
2018-06-16T05:43:02.825Z,10788
2018-06-16T05:44:12.638Z,11108
2018-06-16T05:45:22.734Z,11316
2018-06-16T05:46:32.818Z,11000
2018-06-16T05:47:42.389Z,11032
2018-06-16T05:48:52.276Z,10852
2018-06-16T05:50:02.356Z,10928
2018-06-16T05:51:12.185Z,10852
2018-06-16T05:52:22.283Z,10748
2018-06-16T05:53:32.379Z,10564
2018-06-16T05:54:42.216Z,10404
2018-06-16T05:55:52.300Z,10560
2018-06-16T05:57:02.105Z,10480
2018-06-16T05:58:12.198Z,10300
2018-06-16T05:59:22.283Z,10188
2018-06-16T06:00:32.567Z,10320
2018-06-16T06:01:42.781Z,10472
2018-06-16T06:02:52.861Z,10452
2018-06-16T06:04:02.945Z,10524
2018-06-16T06:05:13.017Z,10468
2018-06-16T06:06:22.908Z,10420
2018-06-16T06:07:32.723Z,10072
2018-06-16T06:08:42.795Z,10100
2018-06-16T06:09:52.863Z,10340
2018-06-16T06:11:02.956Z,10288
2018-06-16T06:12:13.103Z,10208
2018-06-16T06:13:22.912Z,10096
2018-06-16T06:14:33.012Z,10044
2018-06-16T06:15:42.933Z,10032
2018-06-16T06:16:52.830Z,9944
2018-06-16T06:18:02.917Z,9944
2018-06-16T06:19:13.074Z,9840
2018-06-16T06:20:23.154Z,9820
2018-06-16T06:21:33.227Z,9760
2018-06-16T06:22:43.312Z,9624
2018-06-16T06:23:53.390Z,9620
2018-06-16T06:25:03.480Z,9412
2018-06-16T06:26:13.315Z,9280
2018-06-16T06:27:23.135Z,9268
2018-06-16T06:28:33.232Z,9156
2018-06-16T06:29:43.313Z,9080
2018-06-16T06:30:53.392Z,8952
2018-06-16T06:32:03.729Z,8916
2018-06-16T06:33:13.643Z,8852
2018-06-16T06:34:23.776Z,8864
2018-06-16T06:35:33.876Z,8564
2018-06-16T06:36:43.972Z,8500
2018-06-16T06:37:53.786Z,8224
2018-06-16T06:39:03.877Z,7592
2018-06-16T06:40:13.692Z,6844
2018-06-16T06:41:23.791Z,5996
2018-06-16T06:42:33.617Z,6540
2018-06-16T06:43:43.720Z,8108
2018-06-16T06:44:53.281Z,7136
2018-06-16T06:46:03.377Z,5704
2018-06-16T06:47:13.477Z,7032
2018-06-16T06:48:23.561Z,6752
2018-06-16T06:49:33.385Z,7136
2018-06-16T06:50:43.503Z,7776
2018-06-16T06:51:53.585Z,7196
2018-06-16T06:53:03.657Z,6076
2018-06-16T06:54:13.789Z,7600
2018-06-16T06:55:23.633Z,7876
2018-06-16T06:56:33.199Z,7992
2018-06-16T06:57:43.301Z,8696
2018-06-16T06:58:53.410Z,8724
2018-06-16T07:00:03.518Z,8616
2018-06-16T07:01:13.608Z,8468
2018-06-16T07:02:23.690Z,8344
2018-06-16T07:03:33.295Z,8204
2018-06-16T07:04:43.393Z,7844
2018-06-16T07:05:53.212Z,7504
2018-06-16T07:07:03.291Z,7372
2018-06-16T07:08:13.105Z,7284
2018-06-16T07:09:23.262Z,7280
2018-06-16T07:10:33.246Z,7152
2018-06-16T07:11:43.440Z,6980
2018-06-16T07:12:53.558Z,6900
2018-06-16T07:14:03.395Z,6708
2018-06-16T07:15:13.297Z,6284
2018-06-16T07:16:23.390Z,5816
2018-06-16T07:17:33.215Z,5556
2018-06-16T07:18:43.028Z,5404
2018-06-16T07:19:53.118Z,5288
2018-06-16T07:21:02.666Z,5192
2018-06-16T07:22:12.746Z,5144
2018-06-16T07:23:22.827Z,5068
2018-06-16T07:24:32.921Z,5040
2018-06-16T07:25:43.000Z,5028
2018-06-16T07:26:52.870Z,5012
2018-06-16T07:28:02.955Z,4972
2018-06-16T07:29:13.164Z,4936
2018-06-16T07:30:23.292Z,4916
2018-06-16T07:31:33.096Z,4896
2018-06-16T07:32:43.183Z,4872
2018-06-16T07:33:53.255Z,4844
2018-06-16T07:35:02.812Z,4856
2018-06-16T07:36:12.823Z,4868
2018-06-16T07:37:23.140Z,4868
2018-06-16T07:38:33.264Z,4868
2018-06-16T07:39:43.371Z,4884
2018-06-16T07:40:53.467Z,4892
2018-06-16T07:42:03.575Z,4896
2018-06-16T07:43:13.674Z,4896
2018-06-16T07:44:23.799Z,4896
2018-06-16T07:45:33.632Z,4888
2018-06-16T07:46:43.191Z,4896
2018-06-16T07:47:53.044Z,4888
2018-06-16T07:49:03.260Z,4920
2018-06-16T07:50:13.154Z,4920
2018-06-16T07:51:23.279Z,4940
2018-06-16T07:52:33.427Z,4936
2018-06-16T07:53:43.758Z,4964
2018-06-16T07:54:54.139Z,4964
2018-06-16T07:56:04.248Z,4948
2018-06-16T07:57:14.378Z,4960
2018-06-16T07:58:24.466Z,4964
2018-06-16T07:59:34.570Z,5192
2018-06-16T08:00:44.648Z,5208
2018-06-16T08:01:54.730Z,5068
2018-06-16T08:03:04.826Z,5124
2018-06-16T08:04:14.919Z,5148
2018-06-16T08:05:25.025Z,5132
2018-06-16T08:06:34.593Z,5112
2018-06-16T08:07:44.882Z,4944
2018-06-16T08:08:54.980Z,4984
2018-06-16T08:10:05.116Z,5004
2018-06-16T08:11:15.205Z,5020
2018-06-16T08:12:25.044Z,5052
2018-06-16T08:13:35.100Z,5056
2018-06-16T08:14:45.187Z,5184
2018-06-16T08:15:55.283Z,5136
2018-06-16T08:17:05.396Z,5160
2018-06-16T08:18:15.550Z,5204
2018-06-16T08:19:25.649Z,5180
2018-06-16T08:20:35.518Z,5216
2018-06-16T08:21:45.346Z,5224
2018-06-16T08:22:55.442Z,5232
2018-06-16T08:24:05.546Z,5220
2018-06-16T08:25:15.644Z,5248
2018-06-16T08:26:25.760Z,5260
2018-06-16T08:27:35.873Z,5224
2018-06-16T08:28:45.975Z,5264
2018-06-16T08:29:55.787Z,5284
2018-06-16T08:31:05.687Z,5276
2018-06-16T08:32:15.790Z,5300
2018-06-16T08:33:25.867Z,5296
2018-06-16T08:34:35.979Z,5308
2018-06-16T08:35:46.079Z,5288
2018-06-16T08:36:56.216Z,5268
2018-06-16T08:38:06.325Z,5280
2018-06-16T08:39:16.441Z,5304
2018-06-16T08:40:26.293Z,5264
2018-06-16T08:41:35.876Z,5304
2018-06-16T08:42:45.981Z,5320
2018-06-16T08:43:56.105Z,5340
2018-06-16T08:45:06.240Z,5392
2018-06-16T08:46:16.324Z,5388
2018-06-16T08:47:26.435Z,5328
2018-06-16T08:48:36.542Z,5348
2018-06-16T08:49:46.667Z,5384
2018-06-16T08:50:56.771Z,5304
2018-06-16T08:52:06.860Z,5312
2018-06-16T08:53:16.961Z,5352
2018-06-16T08:54:27.073Z,5316
2018-06-16T08:55:37.276Z,5220
2018-06-16T08:56:47.611Z,5328
2018-06-16T08:57:57.709Z,5304
2018-06-16T08:59:07.805Z,5316
2018-06-16T09:00:17.961Z,5276
2018-06-16T09:01:28.178Z,5336
2018-06-16T09:02:38.275Z,5448
2018-06-16T09:03:48.372Z,5556
2018-06-16T09:04:58.208Z,5500
2018-06-16T09:06:08.368Z,5556
2018-06-16T09:07:18.459Z,3420
2018-06-16T09:08:28.572Z,5812
2018-06-16T09:09:38.660Z,4376
2018-06-16T09:10:48.215Z,3808
2018-06-16T09:11:58.090Z,6136
2018-06-16T09:13:08.232Z,6120
2018-06-16T09:14:18.341Z,6152
2018-06-16T09:15:28.442Z,6084
2018-06-16T09:16:38.268Z,6176
2018-06-16T09:17:48.377Z,6372
2018-06-16T09:18:58.477Z,6588
2018-06-16T09:20:08.599Z,6692
2018-06-16T09:21:18.435Z,4312
2018-06-16T09:22:28.282Z,6224
2018-06-16T09:23:38.111Z,6340
2018-06-16T09:24:48.209Z,6412
2018-06-16T09:25:58.309Z,6512
2018-06-16T09:27:08.144Z,6340
2018-06-16T09:28:18.253Z,6320
2018-06-16T09:29:28.086Z,6292
2018-06-16T09:30:37.907Z,6124
2018-06-16T09:31:48.125Z,5916
2018-06-16T09:32:58.397Z,5888
2018-06-16T09:34:08.496Z,5900
2018-06-16T09:35:18.364Z,5996
2018-06-16T09:36:28.516Z,6164
2018-06-16T09:37:38.884Z,6276
2018-06-16T09:38:48.982Z,6396
2018-06-16T09:39:58.808Z,6576
2018-06-16T09:41:08.902Z,6640
2018-06-16T09:42:19.025Z,6644
2018-06-16T09:43:29.125Z,6700
2018-06-16T09:44:38.959Z,6752
2018-06-16T09:45:49.070Z,6784
2018-06-16T09:46:58.900Z,6852
2018-06-16T09:48:09.035Z,5892
2018-06-16T09:49:20.050Z,4348
2018-06-16T09:50:29.883Z,4380
2018-06-16T09:51:40.317Z,7340
2018-06-16T09:52:50.926Z,7536
2018-06-16T09:54:01.923Z,7764
2018-06-16T09:55:11.945Z,7752
2018-06-16T09:56:22.225Z,7696
2018-06-16T09:57:32.330Z,7528
2018-06-16T09:58:42.437Z,7360
2018-06-16T09:59:52.601Z,7240
2018-06-16T10:01:02.398Z,7268
2018-06-16T10:02:12.479Z,7424
2018-06-16T10:03:22.471Z,7452
2018-06-16T10:04:32.634Z,7588
2018-06-16T10:05:42.744Z,7640
2018-06-16T10:06:52.586Z,7840
2018-06-16T10:08:02.677Z,7864
2018-06-16T10:09:12.772Z,7964
2018-06-16T10:10:22.852Z,7704
2018-06-16T10:11:32.683Z,7872
2018-06-16T10:12:42.758Z,5096
2018-06-16T10:13:52.857Z,4780
2018-06-16T10:15:03.026Z,4604
2018-06-16T10:16:13.127Z,4692
2018-06-16T10:17:22.992Z,5044
2018-06-16T10:18:33.068Z,5072
2018-06-16T10:19:43.182Z,5128
2018-06-16T10:20:53.280Z,5124
2018-06-16T10:22:03.400Z,5276
2018-06-16T10:23:13.230Z,8192
2018-06-16T10:24:23.326Z,8256
2018-06-16T10:25:33.434Z,8148
2018-06-16T10:26:43.527Z,8188
2018-06-16T10:27:53.616Z,6520
2018-06-16T10:29:03.915Z,8084
2018-06-16T10:30:14.186Z,8068
2018-06-16T10:31:24.285Z,5160
2018-06-16T10:32:34.419Z,5028
2018-06-16T10:33:44.510Z,4888
2018-06-16T10:34:54.337Z,4740
2018-06-16T10:36:04.438Z,4616
2018-06-16T10:37:14.281Z,4508
2018-06-16T10:38:24.125Z,4340
2018-06-16T10:39:34.215Z,4212
2018-06-16T10:40:44.057Z,4112
2018-06-16T10:41:54.140Z,3984
2018-06-16T10:43:04.257Z,3920
2018-06-16T10:44:14.359Z,3884
2018-06-16T10:45:24.465Z,3876
2018-06-16T10:46:34.550Z,3844
2018-06-16T10:47:44.659Z,3824
2018-06-16T10:48:54.759Z,3800
2018-06-16T10:50:04.853Z,3800
2018-06-16T10:51:14.941Z,3804
2018-06-16T10:52:25.047Z,3812
2018-06-16T10:53:34.893Z,3804
2018-06-16T10:54:45.009Z,3800
2018-06-16T10:55:55.125Z,3860
2018-06-16T10:57:05.214Z,3772
2018-06-16T10:58:15.302Z,3704
2018-06-16T10:59:25.399Z,3636
2018-06-16T11:00:35.710Z,3576
2018-06-16T11:01:45.798Z,3552
2018-06-16T11:02:55.642Z,3544
2018-06-16T11:04:05.782Z,3564
2018-06-16T11:05:15.618Z,3564
2018-06-16T11:06:25.449Z,3536
2018-06-16T11:07:35.590Z,3488
2018-06-16T11:08:45.712Z,3420
2018-06-16T11:09:55.820Z,3340
2018-06-16T11:11:05.929Z,3232
2018-06-16T11:12:15.746Z,3112
2018-06-16T11:13:25.896Z,3040
2018-06-16T11:14:35.718Z,3016
2018-06-16T11:15:45.015Z,2992
2018-06-16T11:16:55.092Z,2980
2018-06-16T11:18:04.914Z,2960
2018-06-16T11:19:15.284Z,2920
2018-06-16T11:20:25.382Z,2864
2018-06-16T11:21:35.520Z,2784
2018-06-16T11:22:45.618Z,2688
2018-06-16T11:23:55.713Z,2592
2018-06-16T11:25:05.549Z,2508
2018-06-16T11:26:15.396Z,2460
2018-06-16T11:27:25.506Z,2408
2018-06-16T11:28:35.614Z,2328
2018-06-16T11:29:45.456Z,2252
2018-06-16T11:30:55.568Z,2192
2018-06-16T11:32:05.671Z,2152
2018-06-16T11:33:15.773Z,2100
2018-06-16T11:34:25.612Z,2056
2018-06-16T11:35:35.701Z,2008
2018-06-16T11:36:45.969Z,1972
2018-06-16T11:37:56.123Z,1952
2018-06-16T11:39:05.961Z,1948
2018-06-16T11:40:15.800Z,1944
2018-06-16T11:41:25.979Z,1908
2018-06-16T11:42:36.123Z,1852
2018-06-16T11:43:46.230Z,1788
2018-06-16T11:44:56.317Z,1720
2018-06-16T11:46:05.634Z,1676
2018-06-16T11:47:15.466Z,1648
2018-06-16T11:48:25.312Z,1620
2018-06-16T11:49:35.397Z,1604
2018-06-16T11:50:45.504Z,1588
2018-06-16T11:51:55.601Z,1592
2018-06-16T11:53:05.736Z,1604
2018-06-16T11:54:15.832Z,1624
2018-06-16T11:55:25.674Z,1644
2018-06-16T11:56:35.772Z,1660
2018-06-16T11:57:46.072Z,1668
2018-06-16T11:58:55.920Z,1676
2018-06-16T12:00:05.783Z,1672
2018-06-16T12:01:15.893Z,1672
2018-06-16T12:02:25.984Z,1688
2018-06-16T12:03:36.112Z,1712
2018-06-16T12:04:46.213Z,1740
2018-06-16T12:05:56.038Z,1776
2018-06-16T12:07:06.150Z,1792
2018-06-16T12:08:16.237Z,1792
2018-06-16T12:09:26.331Z,1792
2018-06-16T12:10:36.426Z,1792
2018-06-16T12:11:46.571Z,1796
2018-06-16T12:12:56.679Z,1808
2018-06-16T12:14:06.840Z,1828
2018-06-16T12:15:16.671Z,1852
2018-06-16T12:16:26.778Z,1876
2018-06-16T12:17:36.884Z,1900
2018-06-16T12:18:46.768Z,1924
2018-06-16T12:19:56.877Z,1944
2018-06-16T12:21:06.973Z,1976
2018-06-16T12:22:17.099Z,2016
2018-06-16T12:23:26.924Z,2068
2018-06-16T12:24:36.785Z,2120
2018-06-16T12:25:46.610Z,2160
2018-06-16T12:26:56.761Z,2192
2018-06-16T12:28:06.879Z,2220
2018-06-16T12:29:16.964Z,2236
2018-06-16T12:30:27.083Z,2256
2018-06-16T12:31:37.232Z,2272
2018-06-16T12:32:47.331Z,2292
2018-06-16T12:33:57.429Z,2316
2018-06-16T12:35:07.269Z,2336
2018-06-16T12:36:17.348Z,2340
2018-06-16T12:37:27.181Z,2324
2018-06-16T12:38:37.512Z,2296
2018-06-16T12:39:47.604Z,2256
2018-06-16T12:40:57.745Z,2232
2018-06-16T12:42:07.572Z,2204
2018-06-16T12:43:17.661Z,2184
2018-06-16T12:44:27.496Z,2168
2018-06-16T12:45:37.346Z,2152
2018-06-16T12:46:47.488Z,2140
2018-06-16T12:47:57.327Z,2116
2018-06-16T12:49:07.151Z,2092
2018-06-16T12:50:17.254Z,2068
2018-06-16T12:51:27.564Z,2048
2018-06-16T12:52:37.695Z,2028
2018-06-16T12:53:47.776Z,2008
2018-06-16T12:54:57.912Z,1984
2018-06-16T12:56:07.734Z,1948
2018-06-16T12:57:18.109Z,1912
2018-06-16T12:58:28.309Z,1860
2018-06-16T12:59:38.155Z,1808
2018-06-16T13:00:47.717Z,1768
2018-06-16T13:01:57.802Z,1740
2018-06-16T13:03:07.885Z,1724
2018-06-16T13:04:18.038Z,1720
2018-06-16T13:05:27.869Z,1724
2018-06-16T13:06:37.713Z,1728
2018-06-16T13:07:47.549Z,1736
2018-06-16T13:08:57.670Z,1744
2018-06-16T13:10:07.754Z,1748
2018-06-16T13:11:17.593Z,1752
2018-06-16T13:12:27.442Z,1748
2018-06-16T13:13:37.635Z,1744
2018-06-16T13:14:47.454Z,1736
2018-06-16T13:15:57.593Z,1736
2018-06-16T13:17:07.699Z,1736
2018-06-16T13:18:18.042Z,1728
2018-06-16T13:19:28.167Z,1728
2018-06-16T13:20:38.265Z,1728
2018-06-16T13:21:48.363Z,1736
2018-06-16T13:22:58.463Z,1748
2018-06-16T13:24:08.577Z,1756
2018-06-16T13:25:18.671Z,1756
2018-06-16T13:26:28.778Z,1764
2018-06-16T13:27:38.862Z,1764
2018-06-16T13:28:49.008Z,1772
2018-06-16T13:29:58.582Z,1776
2018-06-16T13:31:08.511Z,1780
2018-06-16T13:32:18.595Z,1792
2018-06-16T13:33:28.707Z,1812
2018-06-16T13:34:38.792Z,1836
2018-06-16T13:35:48.877Z,1860
2018-06-16T13:36:59.010Z,1876
2018-06-16T13:38:09.135Z,1876
2018-06-16T13:39:19.270Z,1876
2018-06-16T13:40:29.131Z,1868
2018-06-16T13:41:38.959Z,1872
2018-06-16T13:42:49.043Z,1872
2018-06-16T13:43:59.157Z,1888
2018-06-16T13:45:09.264Z,1916
2018-06-16T13:54:55.071Z,1988
2018-06-16T13:56:04.907Z,2032
2018-06-16T13:57:14.759Z,2080
2018-06-16T13:58:24.604Z,2132
2018-06-16T13:59:34.684Z,2172
2018-06-16T14:00:44.778Z,2196
2018-06-16T14:01:54.885Z,2220
2018-06-16T14:03:04.702Z,2236
2018-06-16T14:04:14.795Z,2252
2018-06-16T14:05:24.857Z,2264
2018-06-16T14:06:34.689Z,2272
2018-06-16T14:07:44.816Z,2272
2018-06-16T14:08:55.143Z,2272
2018-06-16T14:10:05.239Z,2284
2018-06-16T14:11:15.081Z,2304
2018-06-16T14:12:24.978Z,2316
2018-06-16T14:13:34.812Z,2328
2018-06-16T14:14:44.984Z,2336
2018-06-16T14:15:54.888Z,2348
2018-06-16T14:17:04.980Z,2356
2018-06-16T14:18:15.061Z,2372
2018-06-16T14:19:24.920Z,2380
2018-06-16T14:20:35.030Z,2388
2018-06-16T14:21:45.136Z,2384
2018-06-16T14:22:55.224Z,2376
2018-06-16T14:24:05.388Z,2372
2018-06-16T14:25:15.448Z,2368
2018-06-16T14:26:25.526Z,2368
2018-06-16T14:27:35.633Z,2360
2018-06-16T14:28:45.722Z,2352
2018-06-16T14:29:55.799Z,2344
2018-06-16T14:31:05.893Z,2340
2018-06-16T14:32:15.971Z,2336
2018-06-16T14:33:26.075Z,2332
2018-06-16T14:34:36.187Z,2328
2018-06-16T14:35:46.285Z,2324
2018-06-16T14:36:56.387Z,2328
2018-06-16T14:38:06.471Z,2332
2018-06-16T14:39:16.565Z,2332
2018-06-16T14:40:26.696Z,2328
2018-06-16T14:41:36.641Z,2328
2018-06-16T14:42:46.746Z,2320
2018-06-16T14:43:56.324Z,2320
2018-06-16T14:45:06.410Z,2316
2018-06-16T14:46:16.516Z,2308
2018-06-16T14:47:26.601Z,2300
2018-06-16T14:48:37.007Z,2288
2018-06-16T14:49:47.227Z,2268
2018-06-16T14:50:57.328Z,2252
2018-06-16T14:52:07.441Z,2240
2018-06-16T14:53:17.586Z,2228
2018-06-16T14:54:27.431Z,2216
2018-06-16T14:55:37.265Z,2204
2018-06-16T14:56:47.363Z,2192
2018-06-16T14:57:57.474Z,2180
2018-06-16T14:59:07.632Z,2164
2018-06-16T15:00:17.509Z,2144
2018-06-16T15:01:27.624Z,2128
2018-06-16T15:02:37.721Z,2112
2018-06-16T15:03:47.805Z,2092
2018-06-16T15:04:58.608Z,2080
2018-06-16T15:06:08.851Z,2068
2018-06-16T15:07:18.695Z,2048
2018-06-16T15:08:28.767Z,2032
2018-06-16T15:09:38.762Z,2016
2018-06-16T15:10:48.901Z,2012
2018-06-16T15:11:58.994Z,2008
2018-06-16T15:13:09.102Z,2012
2018-06-16T15:14:19.182Z,2008
2018-06-16T15:15:28.997Z,2008
2018-06-16T15:16:38.840Z,1992
2018-06-16T15:17:48.941Z,1980
2018-06-16T15:18:59.044Z,1972
2018-06-16T15:20:09.157Z,1956
2018-06-16T15:21:18.970Z,1948
2018-06-16T15:22:29.064Z,1940
2018-06-16T15:23:39.159Z,1932
2018-06-16T15:24:49.246Z,1916
2018-06-16T15:25:58.804Z,1904
2018-06-16T15:27:08.879Z,1888
2018-06-16T15:28:18.712Z,1880
2018-06-16T15:29:28.991Z,1872
2018-06-16T15:30:38.559Z,1864
2018-06-16T15:31:48.418Z,1852
2018-06-16T15:32:58.526Z,1844
2018-06-16T15:34:08.358Z,1828
2018-06-16T15:35:18.468Z,1816
2018-06-16T15:36:28.571Z,1800
2018-06-16T15:37:38.387Z,1780
2018-06-16T15:38:48.544Z,1756
2018-06-16T15:39:58.374Z,1724
2018-06-16T15:41:08.210Z,1696
2018-06-16T15:42:18.319Z,1672
2018-06-16T15:43:28.451Z,1656
2018-06-16T15:44:38.602Z,1636
2018-06-16T15:45:48.459Z,1620
2018-06-16T15:46:58.621Z,1604
2018-06-16T15:48:08.719Z,1592
2018-06-16T15:49:18.572Z,1584
2018-06-16T15:50:28.691Z,1576
2018-06-16T15:51:38.789Z,1572
2018-06-16T15:52:48.886Z,1564
2018-06-16T15:53:59.014Z,1560
2018-06-16T15:55:09.288Z,1560
2018-06-16T15:56:19.139Z,1556
2018-06-16T15:57:29.262Z,1552
2018-06-16T15:58:39.132Z,1548
2018-06-16T15:59:49.229Z,1540
2018-06-16T16:00:59.337Z,1540
2018-06-16T16:02:09.136Z,1532
2018-06-16T16:03:18.973Z,1528
2018-06-16T16:04:28.815Z,1524
2018-06-16T16:05:38.890Z,1520
2018-06-16T16:06:48.995Z,1516
2018-06-16T16:07:59.105Z,1508
2018-06-16T16:09:08.961Z,1496
2018-06-16T16:10:18.812Z,1484
2018-06-16T16:11:28.672Z,1464
2018-06-16T16:12:38.807Z,1448
2018-06-16T16:13:48.952Z,1440
2018-06-16T16:14:59.043Z,1428
2018-06-16T16:16:09.151Z,1424
2018-06-16T16:17:19.233Z,1420
2018-06-16T16:18:29.046Z,1420
2018-06-16T16:19:39.153Z,1420
2018-06-16T16:20:49.250Z,1416
2018-06-16T16:21:59.095Z,1412
2018-06-16T16:23:09.187Z,1404
2018-06-16T16:24:19.033Z,1392
2018-06-16T16:25:29.173Z,1380
2018-06-16T16:26:39.282Z,1364